sensor_id;sensor_type;location;lat;lon;timestamp;pressure;altitude;pressure_sealevel;temperature;humidity
41062;BME280;26812;42.662;23.352;2023-02-19T00:01:40;95197.56;;;7.92;52.29
41062;BME280;26812;42.662;23.352;2023-02-19T00:06:39;95196.09;;;8.00;51.96
41062;BME280;26812;42.662;23.352;2023-02-19T00:09:05;95197.09;;;7.71;53.11
41062;BME280;26812;42.662;23.352;2023-02-19T00:11:32;95185.84;;;7.32;53.62
41062;BME280;26812;42.662;23.352;2023-02-19T00:13:59;95200.53;;;7.15;53.97
41062;BME280;26812;42.662;23.352;2023-02-19T00:16:30;95172.00;;;7.25;54.21
41062;BME280;26812;42.662;23.352;2023-02-19T00:18:56;95175.22;;;7.45;53.75
41062;BME280;26812;42.662;23.352;2023-02-19T00:21:23;95187.78;;;7.07;54.92
41062;BME280;26812;42.662;23.352;2023-02-19T00:24:00;95176.94;;;7.18;54.84
41062;BME280;26812;42.662;23.352;2023-02-19T00:26:27;95165.56;;;7.26;54.42
41062;BME280;26812;42.662;23.352;2023-02-19T00:28:54;95189.59;;;7.12;55.06
41062;BME280;26812;42.662;23.352;2023-02-19T00:31:22;95163.00;;;6.97;55.24
41062;BME280;26812;42.662;23.352;2023-02-19T00:33:50;95140.56;;;6.69;55.46
41062;BME280;26812;42.662;23.352;2023-02-19T00:36:16;95131.31;;;6.13;56.80
41062;BME280;26812;42.662;23.352;2023-02-19T00:38:42;95152.38;;;6.68;56.43
41062;BME280;26812;42.662;23.352;2023-02-19T00:41:09;95169.41;;;6.77;56.08
41062;BME280;26812;42.662;23.352;2023-02-19T00:43:51;95144.47;;;6.58;56.66
41062;BME280;26812;42.662;23.352;2023-02-19T00:46:19;95140.19;;;6.57;56.58
41062;BME280;26812;42.662;23.352;2023-02-19T00:48:45;95144.84;;;6.70;56.38
41062;BME280;26812;42.662;23.352;2023-02-19T00:51:11;95172.53;;;6.60;57.26
41062;BME280;26812;42.662;23.352;2023-02-19T00:53:37;95164.06;;;6.77;56.42
41062;BME280;26812;42.662;23.352;2023-02-19T00:56:03;95122.19;;;6.62;56.44
41062;BME280;26812;42.662;23.352;2023-02-19T00:58:43;95153.06;;;6.54;57.22
41062;BME280;26812;42.662;23.352;2023-02-19T01:01:16;95151.00;;;6.22;58.19
41062;BME280;26812;42.662;23.352;2023-02-19T01:03:42;95144.69;;;6.37;57.97
41062;BME280;26812;42.662;23.352;2023-02-19T01:06:09;95151.53;;;6.48;57.41
41062;BME280;26812;42.662;23.352;2023-02-19T01:08:35;95165.94;;;6.76;56.80
41062;BME280;26812;42.662;23.352;2023-02-19T01:11:01;95154.97;;;6.73;56.35
41062;BME280;26812;42.662;23.352;2023-02-19T01:13:27;95142.81;;;6.14;58.07
41062;BME280;26812;42.662;23.352;2023-02-19T01:15:53;95100.53;;;6.11;58.23
41062;BME280;26812;42.662;23.352;2023-02-19T01:18:26;95149.44;;;6.45;57.79
41062;BME280;26812;42.662;23.352;2023-02-19T01:20:51;95138.66;;;6.50;57.31
41062;BME280;26812;42.662;23.352;2023-02-19T01:23:17;95137.97;;;6.40;57.16
41062;BME280;26812;42.662;23.352;2023-02-19T01:25:42;95135.34;;;6.59;57.09
41062;BME280;26812;42.662;23.352;2023-02-19T01:28:09;95116.81;;;6.43;57.15
41062;BME280;26812;42.662;23.352;2023-02-19T01:30:35;95135.41;;;6.53;56.81
41062;BME280;26812;42.662;23.352;2023-02-19T01:33:05;95165.97;;;6.71;56.55
41062;BME280;26812;42.662;23.352;2023-02-19T01:35:31;95149.00;;;6.81;55.98
41062;BME280;26812;42.662;23.352;2023-02-19T01:37:57;95173.91;;;6.58;57.14
41062;BME280;26812;42.662;23.352;2023-02-19T01:40:23;95167.25;;;6.55;57.14
41062;BME280;26812;42.662;23.352;2023-02-19T01:42:48;95159.59;;;6.19;57.85
41062;BME280;26812;42.662;23.352;2023-02-19T01:45:26;95174.34;;;6.17;58.72
41062;BME280;26812;42.662;23.352;2023-02-19T01:50:35;95186.56;;;5.94;58.70
41062;BME280;26812;42.662;23.352;2023-02-19T01:53:04;95177.38;;;6.05;58.25
41062;BME280;26812;42.662;23.352;2023-02-19T01:55:33;95176.69;;;5.95;58.57
41062;BME280;26812;42.662;23.352;2023-02-19T01:57:59;95179.91;;;5.91;58.99
41062;BME280;26812;42.662;23.352;2023-02-19T02:00:24;95189.03;;;5.80;59.74
41062;BME280;26812;42.662;23.352;2023-02-19T02:02:51;95196.47;;;5.94;58.79
41062;BME280;26812;42.662;23.352;2023-02-19T02:08:02;95170.44;;;6.04;57.27
41062;BME280;26812;42.662;23.352;2023-02-19T02:10:48;95194.41;;;6.43;57.15
41062;BME280;26812;42.662;23.352;2023-02-19T02:13:14;95183.16;;;6.46;56.80
41062;BME280;26812;42.662;23.352;2023-02-19T02:16:29;95175.19;;;6.12;57.13
41062;BME280;26812;42.662;23.352;2023-02-19T02:18:49;95191.41;;;6.50;56.55
41062;BME280;26812;42.662;23.352;2023-02-19T02:24:10;95202.13;;;6.74;55.19
41062;BME280;26812;42.662;23.352;2023-02-19T02:31:56;95176.69;;;6.95;54.91
41062;BME280;26812;42.662;23.352;2023-02-19T02:34:27;95182.75;;;7.01;55.17
41062;BME280;26812;42.662;23.352;2023-02-19T02:36:55;95184.63;;;6.81;55.71
41062;BME280;26812;42.662;23.352;2023-02-19T02:39:24;95192.81;;;6.90;55.58
41062;BME280;26812;42.662;23.352;2023-02-19T02:41:55;95159.00;;;6.75;54.69
41062;BME280;26812;42.662;23.352;2023-02-19T02:44:42;95194.84;;;6.98;54.98
41062;BME280;26812;42.662;23.352;2023-02-19T02:47:30;95175.56;;;6.53;56.29
41062;BME280;26812;42.662;23.352;2023-02-19T02:50:06;95187.69;;;6.70;56.38
41062;BME280;26812;42.662;23.352;2023-02-19T02:52:36;95180.75;;;6.69;55.12
41062;BME280;26812;42.662;23.352;2023-02-19T02:55:23;95186.72;;;6.61;55.83
41062;BME280;26812;42.662;23.352;2023-02-19T02:57:49;95190.06;;;6.71;55.92
41062;BME280;26812;42.662;23.352;2023-02-19T03:00:15;95182.16;;;6.37;57.04
41062;BME280;26812;42.662;23.352;2023-02-19T03:02:41;95185.06;;;6.41;56.99
41062;BME280;26812;42.662;23.352;2023-02-19T03:05:21;95190.13;;;6.42;56.72
41062;BME280;26812;42.662;23.352;2023-02-19T03:08:15;95196.81;;;6.45;56.95
41062;BME280;26812;42.662;23.352;2023-02-19T03:11:07;95196.16;;;6.29;57.22
41062;BME280;26812;42.662;23.352;2023-02-19T03:13:52;95214.66;;;6.26;57.62
41062;BME280;26812;42.662;23.352;2023-02-19T03:16:41;95205.16;;;6.09;58.54
41062;BME280;26812;42.662;23.352;2023-02-19T03:19:27;95182.97;;;6.09;58.06
41062;BME280;26812;42.662;23.352;2023-02-19T03:21:58;95214.22;;;6.42;57.46
41062;BME280;26812;42.662;23.352;2023-02-19T03:24:35;95205.38;;;6.42;56.50
41062;BME280;26812;42.662;23.352;2023-02-19T03:27:21;95214.03;;;6.34;57.08
41062;BME280;26812;42.662;23.352;2023-02-19T03:29:49;95204.00;;;5.81;57.68
41062;BME280;26812;42.662;23.352;2023-02-19T03:32:25;95171.31;;;5.16;59.81
41062;BME280;26812;42.662;23.352;2023-02-19T03:34:56;95215.22;;;5.44;60.19
41062;BME280;26812;42.662;23.352;2023-02-19T03:37:31;95237.72;;;5.77;60.00
41062;BME280;26812;42.662;23.352;2023-02-19T03:39:59;95225.16;;;5.78;59.42
41062;BME280;26812;42.662;23.352;2023-02-19T03:45:12;95244.59;;;5.49;60.76
41062;BME280;26812;42.662;23.352;2023-02-19T03:47:56;95247.63;;;5.33;60.70
41062;BME280;26812;42.662;23.352;2023-02-19T03:50:33;95241.25;;;5.28;61.40
41062;BME280;26812;42.662;23.352;2023-02-19T03:53:09;95239.56;;;5.43;60.74
41062;BME280;26812;42.662;23.352;2023-02-19T03:58:23;95258.47;;;5.56;60.06
41062;BME280;26812;42.662;23.352;2023-02-19T04:00:56;95252.53;;;5.65;60.41
41062;BME280;26812;42.662;23.352;2023-02-19T04:06:04;95261.44;;;5.50;60.30
41062;BME280;26812;42.662;23.352;2023-02-19T04:08:34;95249.03;;;5.20;61.51
41062;BME280;26812;42.662;23.352;2023-02-19T04:11:01;95235.69;;;5.15;61.15
41062;BME280;26812;42.662;23.352;2023-02-19T04:13:32;95260.47;;;5.30;60.97
41062;BME280;26812;42.662;23.352;2023-02-19T04:16:06;95268.81;;;5.14;61.52
41062;BME280;26812;42.662;23.352;2023-02-19T04:18:35;95264.75;;;5.32;60.85
41062;BME280;26812;42.662;23.352;2023-02-19T04:21:03;95263.78;;;5.61;60.25
41062;BME280;26812;42.662;23.352;2023-02-19T04:23:34;95258.22;;;5.53;59.97
41062;BME280;26812;42.662;23.352;2023-02-19T04:26:02;95255.50;;;5.09;61.56
41062;BME280;26812;42.662;23.352;2023-02-19T04:28:28;95273.22;;;5.44;60.85
41062;BME280;26812;42.662;23.352;2023-02-19T04:30:55;95264.91;;;4.96;61.63
41062;BME280;26812;42.662;23.352;2023-02-19T04:33:20;95261.97;;;4.82;62.55
41062;BME280;26812;42.662;23.352;2023-02-19T04:35:45;95253.16;;;4.92;62.05
41062;BME280;26812;42.662;23.352;2023-02-19T04:38:11;95256.31;;;5.04;61.51
41062;BME280;26812;42.662;23.352;2023-02-19T04:40:38;95268.00;;;5.13;61.89
41062;BME280;26812;42.662;23.352;2023-02-19T04:43:04;95243.44;;;5.21;61.29
41062;BME280;26812;42.662;23.352;2023-02-19T04:45:29;95241.34;;;5.57;60.06
41062;BME280;26812;42.662;23.352;2023-02-19T04:47:56;95251.31;;;5.42;60.22
41062;BME280;26812;42.662;23.352;2023-02-19T04:50:22;95273.19;;;5.54;60.33
41062;BME280;26812;42.662;23.352;2023-02-19T04:52:48;95259.50;;;5.60;59.96
41062;BME280;26812;42.662;23.352;2023-02-19T04:55:14;95256.00;;;5.65;59.69
41062;BME280;26812;42.662;23.352;2023-02-19T04:57:39;95286.09;;;5.86;59.00
41062;BME280;26812;42.662;23.352;2023-02-19T05:00:05;95288.53;;;5.77;59.04
41062;BME280;26812;42.662;23.352;2023-02-19T05:02:32;95263.06;;;5.46;59.67
41062;BME280;26812;42.662;23.352;2023-02-19T05:04:57;95283.78;;;5.69;59.72
41062;BME280;26812;42.662;23.352;2023-02-19T05:07:23;95288.44;;;5.53;60.17
41062;BME280;26812;42.662;23.352;2023-02-19T05:09:48;95263.19;;;5.15;61.03
41062;BME280;26812;42.662;23.352;2023-02-19T05:12:13;95270.19;;;5.06;60.57
41062;BME280;26812;42.662;23.352;2023-02-19T05:14:39;95278.22;;;5.01;61.15
41062;BME280;26812;42.662;23.352;2023-02-19T05:17:04;95281.44;;;4.88;61.31
41062;BME280;26812;42.662;23.352;2023-02-19T05:19:29;95275.66;;;4.60;62.61
41062;BME280;26812;42.662;23.352;2023-02-19T05:21:55;95298.00;;;4.95;61.66
41062;BME280;26812;42.662;23.352;2023-02-19T05:24:21;95285.47;;;4.95;61.64
41062;BME280;26812;42.662;23.352;2023-02-19T05:26:48;95299.78;;;5.20;61.08
41062;BME280;26812;42.662;23.352;2023-02-19T05:29:14;95277.69;;;5.04;61.56
41062;BME280;26812;42.662;23.352;2023-02-19T05:31:39;95267.00;;;4.99;61.50
41062;BME280;26812;42.662;23.352;2023-02-19T05:34:04;95304.09;;;5.11;61.98
41062;BME280;26812;42.662;23.352;2023-02-19T05:36:30;95307.44;;;5.42;61.21
41062;BME280;26812;42.662;23.352;2023-02-19T05:38:56;95282.22;;;5.63;60.76
41062;BME280;26812;42.662;23.352;2023-02-19T05:41:25;95303.78;;;5.77;60.37
41062;BME280;26812;42.662;23.352;2023-02-19T05:43:51;95321.66;;;5.81;60.23
41062;BME280;26812;42.662;23.352;2023-02-19T05:46:19;95315.66;;;6.05;59.82
41062;BME280;26812;42.662;23.352;2023-02-19T05:48:46;95313.31;;;6.32;59.07
41062;BME280;26812;42.662;23.352;2023-02-19T05:51:14;95311.13;;;6.39;58.01
41062;BME280;26812;42.662;23.352;2023-02-19T05:53:40;95305.94;;;6.19;59.09
41062;BME280;26812;42.662;23.352;2023-02-19T05:56:37;95309.78;;;6.71;57.38
41062;BME280;26812;42.662;23.352;2023-02-19T05:59:23;95289.03;;;6.58;57.51
41062;BME280;26812;42.662;23.352;2023-02-19T06:01:50;95328.25;;;7.25;56.67
41062;BME280;26812;42.662;23.352;2023-02-19T06:04:16;95330.91;;;7.49;55.28
41062;BME280;26812;42.662;23.352;2023-02-19T06:06:44;95319.38;;;7.72;54.41
41062;BME280;26812;42.662;23.352;2023-02-19T06:09:10;95335.84;;;8.03;53.44
41062;BME280;26812;42.662;23.352;2023-02-19T06:11:36;95342.72;;;8.66;53.26
41062;BME280;26812;42.662;23.352;2023-02-19T06:14:01;95325.03;;;9.52;48.18
41062;BME280;26812;42.662;23.352;2023-02-19T06:16:27;95343.63;;;9.35;48.73
41062;BME280;26812;42.662;23.352;2023-02-19T06:18:52;95356.22;;;10.17;47.87
41062;BME280;26812;42.662;23.352;2023-02-19T06:21:18;95340.19;;;10.12;47.11
41062;BME280;26812;42.662;23.352;2023-02-19T06:23:44;95339.94;;;10.58;46.45
41062;BME280;26812;42.662;23.352;2023-02-19T06:26:12;95338.84;;;10.81;44.54
41062;BME280;26812;42.662;23.352;2023-02-19T06:28:39;95345.50;;;10.39;45.39
41062;BME280;26812;42.662;23.352;2023-02-19T06:31:05;95355.25;;;10.71;45.77
41062;BME280;26812;42.662;23.352;2023-02-19T06:33:31;95340.22;;;11.32;44.00
41062;BME280;26812;42.662;23.352;2023-02-19T06:36:02;95336.41;;;11.64;42.75
41062;BME280;26812;42.662;23.352;2023-02-19T06:38:29;95303.91;;;10.99;43.19
41062;BME280;26812;42.662;23.352;2023-02-19T06:40:59;95318.88;;;10.38;44.71
41062;BME280;26812;42.662;23.352;2023-02-19T06:43:24;95316.97;;;10.02;46.32
41062;BME280;26812;42.662;23.352;2023-02-19T06:45:50;95345.13;;;10.32;46.11
41062;BME280;26812;42.662;23.352;2023-02-19T06:48:15;95346.19;;;10.89;45.55
41062;BME280;26812;42.662;23.352;2023-02-19T06:50:41;95329.22;;;11.99;42.69
41062;BME280;26812;42.662;23.352;2023-02-19T06:53:06;95348.13;;;13.03;40.97
41062;BME280;26812;42.662;23.352;2023-02-19T06:55:33;95343.44;;;14.06;38.76
41062;BME280;26812;42.662;23.352;2023-02-19T06:57:58;95337.38;;;15.25;35.95
41062;BME280;26812;42.662;23.352;2023-02-19T07:00:24;95348.53;;;16.42;34.54
41062;BME280;26812;42.662;23.352;2023-02-19T07:02:49;95345.16;;;17.13;32.26
41062;BME280;26812;42.662;23.352;2023-02-19T07:05:22;95360.75;;;17.88;31.22
41062;BME280;26812;42.662;23.352;2023-02-19T07:07:48;95366.78;;;18.28;30.38
41062;BME280;26812;42.662;23.352;2023-02-19T07:10:14;95352.31;;;18.79;29.43
41062;BME280;26812;42.662;23.352;2023-02-19T07:12:45;95360.47;;;19.56;27.84
41062;BME280;26812;42.662;23.352;2023-02-19T07:15:11;95356.63;;;20.52;26.41
41062;BME280;26812;42.662;23.352;2023-02-19T07:17:36;95361.38;;;21.49;25.63
41062;BME280;26812;42.662;23.352;2023-02-19T07:20:01;95354.84;;;20.97;24.89
41062;BME280;26812;42.662;23.352;2023-02-19T07:22:27;95333.19;;;20.05;26.52
41062;BME280;26812;42.662;23.352;2023-02-19T07:24:52;95334.31;;;20.01;26.67
41062;BME280;26812;42.662;23.352;2023-02-19T07:27:18;95340.13;;;20.78;25.87
41062;BME280;26812;42.662;23.352;2023-02-19T07:29:43;95347.59;;;22.30;24.15
41062;BME280;26812;42.662;23.352;2023-02-19T07:32:08;95331.00;;;23.65;22.75
41062;BME280;26812;42.662;23.352;2023-02-19T07:34:34;95305.28;;;25.17;20.99
41062;BME280;26812;42.662;23.352;2023-02-19T07:36:59;95309.97;;;26.79;19.24
41062;BME280;26812;42.662;23.352;2023-02-19T07:39:25;95314.22;;;27.82;18.06
41062;BME280;26812;42.662;23.352;2023-02-19T07:41:50;95331.88;;;28.19;17.41
41062;BME280;26812;42.662;23.352;2023-02-19T07:44:16;95323.25;;;29.03;16.89
41062;BME280;26812;42.662;23.352;2023-02-19T07:46:42;95326.66;;;29.71;16.29
41062;BME280;26812;42.662;23.352;2023-02-19T07:49:07;95321.59;;;30.50;15.29
41062;BME280;26812;42.662;23.352;2023-02-19T07:51:33;95310.63;;;31.88;14.42
41062;BME280;26812;42.662;23.352;2023-02-19T07:53:58;95317.75;;;32.87;13.64
41062;BME280;26812;42.662;23.352;2023-02-19T07:56:24;95319.00;;;34.05;13.09
41062;BME280;26812;42.662;23.352;2023-02-19T07:58:49;95317.22;;;35.06;12.07
41062;BME280;26812;42.662;23.352;2023-02-19T08:01:20;95316.59;;;35.11;11.89
41062;BME280;26812;42.662;23.352;2023-02-19T08:04:05;95308.13;;;34.47;12.01
41062;BME280;26812;42.662;23.352;2023-02-19T08:06:30;95314.56;;;34.84;11.65
41062;BME280;26812;42.662;23.352;2023-02-19T08:08:55;95317.22;;;35.15;11.44
41062;BME280;26812;42.662;23.352;2023-02-19T08:11:26;95311.44;;;35.55;11.13
41062;BME280;26812;42.662;23.352;2023-02-19T08:14:10;95311.13;;;35.44;11.24
41062;BME280;26812;42.662;23.352;2023-02-19T08:16:49;95306.13;;;34.07;11.90
41062;BME280;26812;42.662;23.352;2023-02-19T08:19:14;95303.25;;;33.89;12.36
41062;BME280;26812;42.662;23.352;2023-02-19T08:21:40;95295.25;;;33.47;12.42
41062;BME280;26812;42.662;23.352;2023-02-19T08:24:05;95309.72;;;32.89;12.83
41062;BME280;26812;42.662;23.352;2023-02-19T08:26:32;95309.78;;;30.46;14.63
41062;BME280;26812;42.662;23.352;2023-02-19T08:28:57;95296.19;;;29.11;15.60
41062;BME280;26812;42.662;23.352;2023-02-19T08:31:23;95295.91;;;27.92;16.77
41062;BME280;26812;42.662;23.352;2023-02-19T08:33:49;95289.09;;;27.97;16.97
41062;BME280;26812;42.662;23.352;2023-02-19T08:36:15;95305.13;;;28.79;16.49
41062;BME280;26812;42.662;23.352;2023-02-19T08:38:40;95290.50;;;29.90;15.58
41062;BME280;26812;42.662;23.352;2023-02-19T08:41:07;95289.25;;;30.11;14.98
41062;BME280;26812;42.662;23.352;2023-02-19T08:43:33;95285.47;;;30.50;14.67
41062;BME280;26812;42.662;23.352;2023-02-19T08:45:59;95289.38;;;30.53;15.06
41062;BME280;26812;42.662;23.352;2023-02-19T08:48:24;95292.81;;;30.12;15.12
41062;BME280;26812;42.662;23.352;2023-02-19T08:50:59;95285.47;;;31.25;14.23
41062;BME280;26812;42.662;23.352;2023-02-19T08:53:26;95256.03;;;33.51;12.65
41062;BME280;26812;42.662;23.352;2023-02-19T08:55:52;95279.09;;;33.73;12.32
41062;BME280;26812;42.662;23.352;2023-02-19T08:58:17;95280.72;;;31.09;14.47
41062;BME280;26812;42.662;23.352;2023-02-19T09:00:43;95275.66;;;31.20;14.23
41062;BME280;26812;42.662;23.352;2023-02-19T09:03:09;95268.03;;;30.17;15.21
41062;BME280;26812;42.662;23.352;2023-02-19T09:05:34;95248.13;;;29.54;15.57
41062;BME280;26812;42.662;23.352;2023-02-19T09:07:59;95244.41;;;26.01;19.70
41062;BME280;26812;42.662;23.352;2023-02-19T09:10:25;95240.16;;;27.36;18.21
41062;BME280;26812;42.662;23.352;2023-02-19T09:12:50;95248.56;;;26.61;19.49
41062;BME280;26812;42.662;23.352;2023-02-19T09:15:19;95244.38;;;25.56;20.13
41062;BME280;26812;42.662;23.352;2023-02-19T09:17:44;95215.94;;;25.04;20.73
41062;BME280;26812;42.662;23.352;2023-02-19T09:20:10;95228.31;;;24.64;21.06
41062;BME280;26812;42.662;23.352;2023-02-19T09:22:35;95186.78;;;23.87;22.19
41062;BME280;26812;42.662;23.352;2023-02-19T09:25:01;95209.91;;;23.11;22.76
41062;BME280;26812;42.662;23.352;2023-02-19T09:27:26;95205.63;;;23.28;22.92
41062;BME280;26812;42.662;23.352;2023-02-19T09:29:52;95221.75;;;23.44;23.17
41062;BME280;26812;42.662;23.352;2023-02-19T09:32:18;95229.63;;;25.22;21.37
41062;BME280;26812;42.662;23.352;2023-02-19T09:34:44;95198.44;;;27.23;18.85
41062;BME280;26812;42.662;23.352;2023-02-19T09:37:09;95231.91;;;27.87;18.67
41062;BME280;26812;42.662;23.352;2023-02-19T09:39:35;95222.25;;;28.41;18.01
41062;BME280;26812;42.662;23.352;2023-02-19T09:42:07;95235.03;;;26.40;20.17
41062;BME280;26812;42.662;23.352;2023-02-19T09:44:38;95229.03;;;26.45;19.53
41062;BME280;26812;42.662;23.352;2023-02-19T09:47:12;95223.59;;;26.72;19.92
41062;BME280;26812;42.662;23.352;2023-02-19T09:49:41;95236.84;;;25.60;20.56
41062;BME280;26812;42.662;23.352;2023-02-19T09:52:51;95217.31;;;27.32;18.75
41062;BME280;26812;42.662;23.352;2023-02-19T09:55:34;95231.28;;;29.25;17.33
41062;BME280;26812;42.662;23.352;2023-02-19T09:58:21;95224.94;;;29.44;16.72
41062;BME280;26812;42.662;23.352;2023-02-19T10:00:50;95185.41;;;31.85;14.85
41062;BME280;26812;42.662;23.352;2023-02-19T10:03:34;95197.25;;;33.01;13.65
41062;BME280;26812;42.662;23.352;2023-02-19T10:06:04;95179.16;;;33.77;12.76
41062;BME280;26812;42.662;23.352;2023-02-19T10:08:33;95185.44;;;33.59;13.27
41062;BME280;26812;42.662;23.352;2023-02-19T10:11:00;95183.44;;;34.00;12.60
41062;BME280;26812;42.662;23.352;2023-02-19T10:13:30;95162.91;;;33.94;12.36
41062;BME280;26812;42.662;23.352;2023-02-19T10:16:00;95178.38;;;34.35;12.43
41062;BME280;26812;42.662;23.352;2023-02-19T10:18:34;95169.22;;;34.35;12.18
41062;BME280;26812;42.662;23.352;2023-02-19T10:21:15;95147.00;;;34.40;11.94
41062;BME280;26812;42.662;23.352;2023-02-19T10:23:41;95136.72;;;35.67;10.75
41062;BME280;26812;42.662;23.352;2023-02-19T10:26:08;95145.06;;;35.86;10.97
41062;BME280;26812;42.662;23.352;2023-02-19T10:28:35;95145.00;;;35.95;10.67
41062;BME280;26812;42.662;23.352;2023-02-19T10:31:04;95112.31;;;34.65;11.63
41062;BME280;26812;42.662;23.352;2023-02-19T10:33:31;95136.41;;;34.08;12.28
41062;BME280;26812;42.662;23.352;2023-02-19T10:36:06;95128.00;;;34.90;11.84
41062;BME280;26812;42.662;23.352;2023-02-19T10:38:45;95120.72;;;33.43;12.65
41062;BME280;26812;42.662;23.352;2023-02-19T10:41:13;95100.28;;;29.66;15.14
41062;BME280;26812;42.662;23.352;2023-02-19T10:43:44;95114.84;;;29.21;16.35
41062;BME280;26812;42.662;23.352;2023-02-19T10:46:17;95097.50;;;31.71;14.13
41062;BME280;26812;42.662;23.352;2023-02-19T10:48:53;95105.50;;;34.11;12.37
41062;BME280;26812;42.662;23.352;2023-02-19T10:51:19;95083.53;;;33.82;12.17
41062;BME280;26812;42.662;23.352;2023-02-19T10:53:49;95098.50;;;34.07;12.24
41062;BME280;26812;42.662;23.352;2023-02-19T10:56:23;95086.88;;;31.91;13.53
41062;BME280;26812;42.662;23.352;2023-02-19T10:58:49;95067.97;;;31.73;13.54
41062;BME280;26812;42.662;23.352;2023-02-19T11:01:16;95083.19;;;31.81;13.96
41062;BME280;26812;42.662;23.352;2023-02-19T11:03:45;95080.75;;;32.62;13.07
41062;BME280;26812;42.662;23.352;2023-02-19T11:06:12;95071.88;;;33.16;12.87
41062;BME280;26812;42.662;23.352;2023-02-19T11:11:24;95057.81;;;32.89;13.17
41062;BME280;26812;42.662;23.352;2023-02-19T11:13:53;95039.66;;;33.24;12.55
41062;BME280;26812;42.662;23.352;2023-02-19T11:16:19;95029.75;;;32.61;13.07
41062;BME280;26812;42.662;23.352;2023-02-19T11:18:54;95033.69;;;32.20;13.42
41062;BME280;26812;42.662;23.352;2023-02-19T11:21:26;95012.56;;;32.63;12.94
41062;BME280;26812;42.662;23.352;2023-02-19T11:23:57;95030.91;;;32.73;12.85
41062;BME280;26812;42.662;23.352;2023-02-19T11:26:24;95012.44;;;32.35;13.60
41062;BME280;26812;42.662;23.352;2023-02-19T11:29:15;95016.78;;;33.39;12.83
41062;BME280;26812;42.662;23.352;2023-02-19T11:31:41;94997.13;;;32.40;13.50
41062;BME280;26812;42.662;23.352;2023-02-19T11:34:26;94996.44;;;33.65;12.34
41062;BME280;26812;42.662;23.352;2023-02-19T11:37:09;94994.59;;;33.62;12.50
41062;BME280;26812;42.662;23.352;2023-02-19T11:39:35;94976.59;;;33.82;11.96
41062;BME280;26812;42.662;23.352;2023-02-19T11:47:56;94996.94;;;32.34;12.63
41062;BME280;26812;42.662;23.352;2023-02-19T11:50:51;94973.91;;;30.32;14.17
41062;BME280;26812;42.662;23.352;2023-02-19T12:11:43;94939.09;;;29.44;14.79
41062;BME280;26812;42.662;23.352;2023-02-19T12:14:36;94935.84;;;30.04;14.96
41062;BME280;26812;42.662;23.352;2023-02-19T12:33:44;94896.47;;;25.51;18.73
41062;BME280;26812;42.662;23.352;2023-02-19T12:36:57;94906.41;;;25.79;18.49
41062;BME280;26812;42.662;23.352;2023-02-19T12:39:16;94899.38;;;26.28;18.32
41062;BME280;26812;42.662;23.352;2023-02-19T12:44:55;94879.47;;;26.87;17.58
41062;BME280;26812;42.662;23.352;2023-02-19T12:47:35;94865.44;;;26.04;18.45
41062;BME280;26812;42.662;23.352;2023-02-19T12:52:40;94877.84;;;21.82;23.13
41062;BME280;26812;42.662;23.352;2023-02-19T12:55:33;94862.84;;;21.36;23.75
41062;BME280;26812;42.662;23.352;2023-02-19T12:58:02;94857.75;;;21.31;23.70
41062;BME280;26812;42.662;23.352;2023-02-19T13:09:01;94844.91;;;21.64;23.33
41062;BME280;26812;42.662;23.352;2023-02-19T13:11:35;94844.13;;;20.69;24.44
41062;BME280;26812;42.662;23.352;2023-02-19T13:14:20;94841.53;;;20.32;25.12
41062;BME280;26812;42.662;23.352;2023-02-19T13:16:52;94837.50;;;21.79;23.54
41062;BME280;26812;42.662;23.352;2023-02-19T13:19:20;94793.53;;;22.82;22.03
41062;BME280;26812;42.662;23.352;2023-02-19T13:21:51;94841.28;;;23.93;21.42
41062;BME280;26812;42.662;23.352;2023-02-19T13:24:40;94820.16;;;23.03;21.47
41062;BME280;26812;42.662;23.352;2023-02-19T13:30:21;94823.75;;;22.68;22.37
41062;BME280;26812;42.662;23.352;2023-02-19T13:37:54;94796.47;;;23.93;20.78
41062;BME280;26812;42.662;23.352;2023-02-19T13:40:29;94802.41;;;23.84;20.86
41062;BME280;26812;42.662;23.352;2023-02-19T13:43:07;94804.50;;;24.17;20.39
41062;BME280;26812;42.662;23.352;2023-02-19T13:45:43;94799.50;;;22.02;22.26
41062;BME280;26812;42.662;23.352;2023-02-19T13:50:39;94782.63;;;22.43;22.24
41062;BME280;26812;42.662;23.352;2023-02-19T13:59:33;94792.56;;;23.20;21.57
41062;BME280;26812;42.662;23.352;2023-02-19T14:14:54;94766.75;;;20.80;24.29
41062;BME280;26812;42.662;23.352;2023-02-19T14:23:07;94768.53;;;21.52;22.94
41062;BME280;26812;42.662;23.352;2023-02-19T14:30:59;94749.91;;;20.77;24.37
41062;BME280;26812;42.662;23.352;2023-02-19T14:33:28;94745.66;;;20.84;24.32
41062;BME280;26812;42.662;23.352;2023-02-19T14:36:05;94755.94;;;21.15;24.17
41062;BME280;26812;42.662;23.352;2023-02-19T14:38:42;94720.28;;;21.08;24.01
41062;BME280;26812;42.662;23.352;2023-02-19T14:41:14;94750.06;;;21.17;24.26
41062;BME280;26812;42.662;23.352;2023-02-19T14:43:41;94744.44;;;20.70;24.46
41062;BME280;26812;42.662;23.352;2023-02-19T14:49:41;94734.00;;;21.19;24.46
41062;BME280;26812;42.662;23.352;2023-02-19T14:52:16;94713.22;;;20.93;24.66
41062;BME280;26812;42.662;23.352;2023-02-19T14:54:48;94717.03;;;20.60;25.57
41062;BME280;26812;42.662;23.352;2023-02-19T14:57:37;94745.53;;;20.55;26.18
41062;BME280;26812;42.662;23.352;2023-02-19T15:02:46;94731.34;;;20.35;25.82
41062;BME280;26812;42.662;23.352;2023-02-19T15:05:17;94715.69;;;20.32;26.03
41062;BME280;26812;42.662;23.352;2023-02-19T15:07:47;94713.63;;;20.11;26.17
41062;BME280;26812;42.662;23.352;2023-02-19T15:10:14;94699.06;;;19.93;26.78
41062;BME280;26812;42.662;23.352;2023-02-19T15:12:58;94719.50;;;20.13;26.81
41062;BME280;26812;42.662;23.352;2023-02-19T15:15:27;94720.28;;;20.14;26.57
41062;BME280;26812;42.662;23.352;2023-02-19T15:17:54;94725.34;;;20.15;26.44
41062;BME280;26812;42.662;23.352;2023-02-19T15:20:26;94718.66;;;20.02;26.78